sensor_id;sensor_type;location;lat;lon;timestamp;temperature;humidity
17621;DHT22;8929;51.008;6.804;2022-10-16T00:01:08;15.00;99.90
17621;DHT22;8929;51.008;6.804;2022-10-16T00:03:34;15.00;99.90
17621;DHT22;8929;51.008;6.804;2022-10-16T00:06:00;15.00;99.90
17621;DHT22;8929;51.008;6.804;2022-10-16T00:08:26;15.00;99.90
17621;DHT22;8929;51.008;6.804;2022-10-16T00:10:51;15.00;99.90
17621;DHT22;8929;51.008;6.804;2022-10-16T00:13:17;14.90;99.90
17621;DHT22;8929;51.008;6.804;2022-10-16T00:15:44;15.00;99.90
17621;DHT22;8929;51.008;6.804;2022-10-16T00:18:11;15.00;99.90
17621;DHT22;8929;51.008;6.804;2022-10-16T00:20:36;14.90;99.90
17621;DHT22;8929;51.008;6.804;2022-10-16T00:23:03;14.90;99.90
17621;DHT22;8929;51.008;6.804;2022-10-16T00:25:29;14.90;99.90
17621;DHT22;8929;51.008;6.804;2022-10-16T00:27:54;14.90;99.90
17621;DHT22;8929;51.008;6.804;2022-10-16T00:30:20;15.00;99.90
17621;DHT22;8929;51.008;6.804;2022-10-16T00:32:45;15.00;99.90
17621;DHT22;8929;51.008;6.804;2022-10-16T00:35:10;15.00;99.90
17621;DHT22;8929;51.008;6.804;2022-10-16T00:37:36;15.00;99.90
17621;DHT22;8929;51.008;6.804;2022-10-16T00:40:01;15.00;99.90
17621;DHT22;8929;51.008;6.804;2022-10-16T00:42:27;15.00;99.90
17621;DHT22;8929;51.008;6.804;2022-10-16T00:44:53;14.90;99.90
17621;DHT22;8929;51.008;6.804;2022-10-16T00:47:37;14.90;99.90
17621;DHT22;8929;51.008;6.804;2022-10-16T00:50:08;14.90;99.90
17621;DHT22;8929;51.008;6.804;2022-10-16T00:52:34;14.90;99.90
17621;DHT22;8929;51.008;6.804;2022-10-16T00:55:00;14.80;99.90
17621;DHT22;8929;51.008;6.804;2022-10-16T00:57:27;14.80;99.90
17621;DHT22;8929;51.008;6.804;2022-10-16T00:59:52;14.80;99.90
17621;DHT22;8929;51.008;6.804;2022-10-16T01:02:18;14.80;99.90
17621;DHT22;8929;51.008;6.804;2022-10-16T01:04:51;14.70;99.90
17621;DHT22;8929;51.008;6.804;2022-10-16T01:07:30;14.70;99.90
17621;DHT22;8929;51.008;6.804;2022-10-16T01:10:02;14.70;99.90
17621;DHT22;8929;51.008;6.804;2022-10-16T01:13:11;14.70;99.90
17621;DHT22;8929;51.008;6.804;2022-10-16T01:17:46;14.70;99.90
17621;DHT22;8929;51.008;6.804;2022-10-16T01:20:26;14.70;99.90
17621;DHT22;8929;51.008;6.804;2022-10-16T01:28:22;14.80;99.90
17621;DHT22;8929;51.008;6.804;2022-10-16T01:30:49;14.80;99.90
17621;DHT22;8929;51.008;6.804;2022-10-16T01:33:20;14.80;99.90
17621;DHT22;8929;51.008;6.804;2022-10-16T01:35:46;14.90;99.90
17621;DHT22;8929;51.008;6.804;2022-10-16T01:40:39;14.90;99.90
17621;DHT22;8929;51.008;6.804;2022-10-16T01:43:07;15.00;99.90
17621;DHT22;8929;51.008;6.804;2022-10-16T01:45:35;15.00;99.90
17621;DHT22;8929;51.008;6.804;2022-10-16T01:48:02;15.10;99.90
17621;DHT22;8929;51.008;6.804;2022-10-16T01:50:30;15.20;99.90
17621;DHT22;8929;51.008;6.804;2022-10-16T01:52:56;15.10;99.90
17621;DHT22;8929;51.008;6.804;2022-10-16T01:55:25;15.20;99.90
17621;DHT22;8929;51.008;6.804;2022-10-16T01:57:53;15.20;99.90
17621;DHT22;8929;51.008;6.804;2022-10-16T02:00:19;15.20;99.90
17621;DHT22;8929;51.008;6.804;2022-10-16T02:02:46;15.10;99.90
17621;DHT22;8929;51.008;6.804;2022-10-16T02:07:45;15.20;99.90
17621;DHT22;8929;51.008;6.804;2022-10-16T02:10:11;15.20;99.90
17621;DHT22;8929;51.008;6.804;2022-10-16T02:12:37;15.20;99.90
17621;DHT22;8929;51.008;6.804;2022-10-16T02:15:05;15.20;99.90
17621;DHT22;8929;51.008;6.804;2022-10-16T02:17:31;15.30;99.90
17621;DHT22;8929;51.008;6.804;2022-10-16T02:19:57;15.30;99.90
17621;DHT22;8929;51.008;6.804;2022-10-16T02:24:53;15.30;99.90
17621;DHT22;8929;51.008;6.804;2022-10-16T02:27:34;15.30;99.90
17621;DHT22;8929;51.008;6.804;2022-10-16T02:30:19;15.30;99.90
17621;DHT22;8929;51.008;6.804;2022-10-16T02:32:47;15.30;99.90
17621;DHT22;8929;51.008;6.804;2022-10-16T02:35:13;15.40;99.90
17621;DHT22;8929;51.008;6.804;2022-10-16T02:37:39;15.30;99.90
17621;DHT22;8929;51.008;6.804;2022-10-16T02:40:05;15.40;99.90
17621;DHT22;8929;51.008;6.804;2022-10-16T02:42:33;15.40;99.90
17621;DHT22;8929;51.008;6.804;2022-10-16T02:44:58;15.40;99.90
17621;DHT22;8929;51.008;6.804;2022-10-16T02:47:24;15.40;99.90
17621;DHT22;8929;51.008;6.804;2022-10-16T02:49:49;15.40;99.90
17621;DHT22;8929;51.008;6.804;2022-10-16T02:52:15;15.40;99.90
17621;DHT22;8929;51.008;6.804;2022-10-16T02:54:40;15.30;99.90
17621;DHT22;8929;51.008;6.804;2022-10-16T02:57:06;15.30;99.90
17621;DHT22;8929;51.008;6.804;2022-10-16T02:59:31;15.30;99.90
17621;DHT22;8929;51.008;6.804;2022-10-16T03:01:57;15.30;99.90
17621;DHT22;8929;51.008;6.804;2022-10-16T03:04:22;15.20;99.90
17621;DHT22;8929;51.008;6.804;2022-10-16T03:06:48;15.20;99.90
17621;DHT22;8929;51.008;6.804;2022-10-16T03:09:13;15.10;99.90
17621;DHT22;8929;51.008;6.804;2022-10-16T03:11:39;15.10;99.90
17621;DHT22;8929;51.008;6.804;2022-10-16T03:14:04;15.00;99.90
17621;DHT22;8929;51.008;6.804;2022-10-16T03:16:30;15.00;99.90
17621;DHT22;8929;51.008;6.804;2022-10-16T03:18:55;14.90;99.90
17621;DHT22;8929;51.008;6.804;2022-10-16T03:21:21;14.90;99.90
17621;DHT22;8929;51.008;6.804;2022-10-16T03:23:46;14.90;99.90
17621;DHT22;8929;51.008;6.804;2022-10-16T03:26:12;14.80;99.90
17621;DHT22;8929;51.008;6.804;2022-10-16T03:28:37;14.80;99.90
17621;DHT22;8929;51.008;6.804;2022-10-16T03:31:03;14.80;99.90
17621;DHT22;8929;51.008;6.804;2022-10-16T03:33:28;14.80;99.90
17621;DHT22;8929;51.008;6.804;2022-10-16T03:35:54;14.70;99.90
17621;DHT22;8929;51.008;6.804;2022-10-16T03:38:21;14.70;99.90
17621;DHT22;8929;51.008;6.804;2022-10-16T03:40:46;14.70;99.90
17621;DHT22;8929;51.008;6.804;2022-10-16T03:43:12;14.70;99.90
17621;DHT22;8929;51.008;6.804;2022-10-16T03:45:37;14.70;99.90
17621;DHT22;8929;51.008;6.804;2022-10-16T03:48:03;14.70;99.90
17621;DHT22;8929;51.008;6.804;2022-10-16T03:50:29;14.70;99.90
17621;DHT22;8929;51.008;6.804;2022-10-16T03:52:54;14.70;99.90
17621;DHT22;8929;51.008;6.804;2022-10-16T03:55:20;14.70;99.90
17621;DHT22;8929;51.008;6.804;2022-10-16T03:57:45;14.70;99.90
17621;DHT22;8929;51.008;6.804;2022-10-16T04:00:11;14.80;99.90
17621;DHT22;8929;51.008;6.804;2022-10-16T04:02:36;14.80;99.90
17621;DHT22;8929;51.008;6.804;2022-10-16T04:05:02;14.90;99.90
17621;DHT22;8929;51.008;6.804;2022-10-16T04:07:28;14.80;99.90
17621;DHT22;8929;51.008;6.804;2022-10-16T04:09:54;14.90;99.90
17621;DHT22;8929;51.008;6.804;2022-10-16T04:12:19;14.90;99.90
17621;DHT22;8929;51.008;6.804;2022-10-16T04:14:44;14.90;99.90
17621;DHT22;8929;51.008;6.804;2022-10-16T04:17:10;14.90;99.90
17621;DHT22;8929;51.008;6.804;2022-10-16T04:19:35;14.90;99.90
17621;DHT22;8929;51.008;6.804;2022-10-16T04:22:02;14.90;99.90
17621;DHT22;8929;51.008;6.804;2022-10-16T04:24:27;14.90;99.90
17621;DHT22;8929;51.008;6.804;2022-10-16T04:26:53;14.80;99.90
17621;DHT22;8929;51.008;6.804;2022-10-16T04:29:18;14.80;99.90
17621;DHT22;8929;51.008;6.804;2022-10-16T04:31:44;14.70;99.90
17621;DHT22;8929;51.008;6.804;2022-10-16T04:34:09;14.70;99.90
17621;DHT22;8929;51.008;6.804;2022-10-16T04:36:34;14.70;99.90
17621;DHT22;8929;51.008;6.804;2022-10-16T04:39:00;14.60;99.90
17621;DHT22;8929;51.008;6.804;2022-10-16T04:41:25;14.60;99.90
17621;DHT22;8929;51.008;6.804;2022-10-16T04:43:51;14.60;99.90
17621;DHT22;8929;51.008;6.804;2022-10-16T04:46:16;14.50;99.90
17621;DHT22;8929;51.008;6.804;2022-10-16T04:48:42;14.50;99.90
17621;DHT22;8929;51.008;6.804;2022-10-16T04:51:07;14.50;99.90
17621;DHT22;8929;51.008;6.804;2022-10-16T04:53:33;14.50;99.90
17621;DHT22;8929;51.008;6.804;2022-10-16T04:55:59;14.50;99.90
17621;DHT22;8929;51.008;6.804;2022-10-16T04:58:25;14.50;99.90
17621;DHT22;8929;51.008;6.804;2022-10-16T05:00:50;14.50;99.90
17621;DHT22;8929;51.008;6.804;2022-10-16T05:03:15;14.60;99.90
17621;DHT22;8929;51.008;6.804;2022-10-16T05:05:45;14.60;99.90
17621;DHT22;8929;51.008;6.804;2022-10-16T05:08:11;14.50;99.90
17621;DHT22;8929;51.008;6.804;2022-10-16T05:10:37;14.50;99.90
17621;DHT22;8929;51.008;6.804;2022-10-16T05:13:02;14.50;99.90
17621;DHT22;8929;51.008;6.804;2022-10-16T05:15:28;14.40;99.90
17621;DHT22;8929;51.008;6.804;2022-10-16T05:17:54;14.40;99.90
17621;DHT22;8929;51.008;6.804;2022-10-16T05:20:19;14.40;99.90
17621;DHT22;8929;51.008;6.804;2022-10-16T05:22:45;14.40;99.90
17621;DHT22;8929;51.008;6.804;2022-10-16T05:25:10;14.40;99.90
17621;DHT22;8929;51.008;6.804;2022-10-16T05:27:36;14.40;99.90
17621;DHT22;8929;51.008;6.804;2022-10-16T05:30:01;14.40;99.90
17621;DHT22;8929;51.008;6.804;2022-10-16T05:32:27;14.40;99.90
17621;DHT22;8929;51.008;6.804;2022-10-16T05:34:52;14.50;99.90
17621;DHT22;8929;51.008;6.804;2022-10-16T05:37:18;14.60;99.90
17621;DHT22;8929;51.008;6.804;2022-10-16T05:39:43;14.70;99.90
17621;DHT22;8929;51.008;6.804;2022-10-16T05:42:09;14.70;99.90
17621;DHT22;8929;51.008;6.804;2022-10-16T05:44:34;14.70;99.90
17621;DHT22;8929;51.008;6.804;2022-10-16T05:46:59;14.70;99.90
17621;DHT22;8929;51.008;6.804;2022-10-16T05:49:25;14.80;99.90
17621;DHT22;8929;51.008;6.804;2022-10-16T05:51:50;14.70;99.90
17621;DHT22;8929;51.008;6.804;2022-10-16T05:54:16;14.80;99.90
17621;DHT22;8929;51.008;6.804;2022-10-16T05:56:41;14.80;99.90
17621;DHT22;8929;51.008;6.804;2022-10-16T05:59:07;14.80;99.90
17621;DHT22;8929;51.008;6.804;2022-10-16T06:01:32;14.80;99.90
17621;DHT22;8929;51.008;6.804;2022-10-16T06:03:58;14.80;99.90
17621;DHT22;8929;51.008;6.804;2022-10-16T06:06:25;14.80;99.90
17621;DHT22;8929;51.008;6.804;2022-10-16T06:08:51;14.80;99.90
17621;DHT22;8929;51.008;6.804;2022-10-16T06:11:21;14.80;99.90
17621;DHT22;8929;51.008;6.804;2022-10-16T06:13:50;14.70;99.90
17621;DHT22;8929;51.008;6.804;2022-10-16T06:16:16;14.80;99.90
17621;DHT22;8929;51.008;6.804;2022-10-16T06:18:41;14.80;99.90
17621;DHT22;8929;51.008;6.804;2022-10-16T06:21:11;14.80;99.90
17621;DHT22;8929;51.008;6.804;2022-10-16T06:23:37;14.80;99.90
17621;DHT22;8929;51.008;6.804;2022-10-16T06:26:10;14.80;99.90
17621;DHT22;8929;51.008;6.804;2022-10-16T06:28:35;14.90;99.90
17621;DHT22;8929;51.008;6.804;2022-10-16T06:31:01;14.90;99.90
17621;DHT22;8929;51.008;6.804;2022-10-16T06:33:27;14.90;99.90
17621;DHT22;8929;51.008;6.804;2022-10-16T06:35:53;15.00;99.90
17621;DHT22;8929;51.008;6.804;2022-10-16T06:38:18;15.00;99.90
17621;DHT22;8929;51.008;6.804;2022-10-16T06:40:44;15.00;99.90
17621;DHT22;8929;51.008;6.804;2022-10-16T06:43:09;15.10;99.90
17621;DHT22;8929;51.008;6.804;2022-10-16T06:45:35;15.10;99.90
17621;DHT22;8929;51.008;6.804;2022-10-16T06:48:00;15.20;99.90
17621;DHT22;8929;51.008;6.804;2022-10-16T06:50:25;15.30;99.90
17621;DHT22;8929;51.008;6.804;2022-10-16T06:52:51;15.40;99.90
17621;DHT22;8929;51.008;6.804;2022-10-16T06:55:16;15.40;99.90
17621;DHT22;8929;51.008;6.804;2022-10-16T06:57:42;15.50;99.90
17621;DHT22;8929;51.008;6.804;2022-10-16T07:00:08;15.60;99.90
17621;DHT22;8929;51.008;6.804;2022-10-16T07:02:33;15.70;99.90
17621;DHT22;8929;51.008;6.804;2022-10-16T07:04:59;15.70;99.90
17621;DHT22;8929;51.008;6.804;2022-10-16T07:07:24;15.80;99.90
17621;DHT22;8929;51.008;6.804;2022-10-16T07:09:51;15.80;99.90
17621;DHT22;8929;51.008;6.804;2022-10-16T07:12:17;15.90;99.90
17621;DHT22;8929;51.008;6.804;2022-10-16T07:14:43;15.90;99.90
17621;DHT22;8929;51.008;6.804;2022-10-16T07:17:08;16.00;99.90
17621;DHT22;8929;51.008;6.804;2022-10-16T07:19:33;16.10;99.90
17621;DHT22;8929;51.008;6.804;2022-10-16T07:21:59;16.10;99.90
17621;DHT22;8929;51.008;6.804;2022-10-16T07:24:24;16.10;99.90
17621;DHT22;8929;51.008;6.804;2022-10-16T07:26:50;16.20;99.90
17621;DHT22;8929;51.008;6.804;2022-10-16T07:29:16;16.20;99.90
17621;DHT22;8929;51.008;6.804;2022-10-16T07:31:43;16.20;99.90
17621;DHT22;8929;51.008;6.804;2022-10-16T07:34:09;16.20;99.90
17621;DHT22;8929;51.008;6.804;2022-10-16T07:36:34;16.20;99.90
17621;DHT22;8929;51.008;6.804;2022-10-16T07:39:00;16.20;99.90
17621;DHT22;8929;51.008;6.804;2022-10-16T07:41:25;16.20;99.90
17621;DHT22;8929;51.008;6.804;2022-10-16T07:43:51;16.10;99.90
17621;DHT22;8929;51.008;6.804;2022-10-16T07:46:18;16.00;99.90
17621;DHT22;8929;51.008;6.804;2022-10-16T07:48:44;15.90;99.90
17621;DHT22;8929;51.008;6.804;2022-10-16T07:51:13;15.80;99.90
17621;DHT22;8929;51.008;6.804;2022-10-16T07:53:39;15.80;99.90
17621;DHT22;8929;51.008;6.804;2022-10-16T07:56:04;15.70;99.90
17621;DHT22;8929;51.008;6.804;2022-10-16T07:58:31;15.70;99.90
17621;DHT22;8929;51.008;6.804;2022-10-16T08:00:57;15.70;99.90
17621;DHT22;8929;51.008;6.804;2022-10-16T08:03:23;15.80;99.90
17621;DHT22;8929;51.008;6.804;2022-10-16T08:05:49;15.90;99.90
17621;DHT22;8929;51.008;6.804;2022-10-16T08:08:18;16.10;99.90
17621;DHT22;8929;51.008;6.804;2022-10-16T08:10:44;16.10;99.90
17621;DHT22;8929;51.008;6.804;2022-10-16T08:13:09;16.30;99.90
17621;DHT22;8929;51.008;6.804;2022-10-16T08:15:35;16.40;99.90
17621;DHT22;8929;51.008;6.804;2022-10-16T08:18:01;16.50;99.90
17621;DHT22;8929;51.008;6.804;2022-10-16T08:20:27;16.60;99.90
17621;DHT22;8929;51.008;6.804;2022-10-16T08:22:54;16.60;99.90
17621;DHT22;8929;51.008;6.804;2022-10-16T08:25:20;16.60;99.90
17621;DHT22;8929;51.008;6.804;2022-10-16T08:27:45;16.60;99.90
17621;DHT22;8929;51.008;6.804;2022-10-16T08:30:11;16.70;99.90
17621;DHT22;8929;51.008;6.804;2022-10-16T08:32:37;16.70;99.90
17621;DHT22;8929;51.008;6.804;2022-10-16T08:35:02;16.70;99.90
17621;DHT22;8929;51.008;6.804;2022-10-16T08:37:31;16.90;99.90
17621;DHT22;8929;51.008;6.804;2022-10-16T08:39:57;16.90;99.90
17621;DHT22;8929;51.008;6.804;2022-10-16T08:42:31;17.00;99.90
17621;DHT22;8929;51.008;6.804;2022-10-16T08:48:05;17.20;99.90
17621;DHT22;8929;51.008;6.804;2022-10-16T08:50:35;17.30;99.90
17621;DHT22;8929;51.008;6.804;2022-10-16T08:53:01;17.30;99.90
17621;DHT22;8929;51.008;6.804;2022-10-16T08:55:37;17.40;99.90
17621;DHT22;8929;51.008;6.804;2022-10-16T08:58:13;17.40;99.90
17621;DHT22;8929;51.008;6.804;2022-10-16T09:00:39;17.50;99.90
17621;DHT22;8929;51.008;6.804;2022-10-16T09:10:52;17.80;99.90
17621;DHT22;8929;51.008;6.804;2022-10-16T09:13:28;17.90;99.90
17621;DHT22;8929;51.008;6.804;2022-10-16T09:25:41;18.10;99.90
17621;DHT22;8929;51.008;6.804;2022-10-16T09:28:08;18.10;99.90
17621;DHT22;8929;51.008;6.804;2022-10-16T09:30:34;18.10;99.90
17621;DHT22;8929;51.008;6.804;2022-10-16T09:32:59;18.30;99.90
17621;DHT22;8929;51.008;6.804;2022-10-16T09:35:33;18.40;99.90
17621;DHT22;8929;51.008;6.804;2022-10-16T09:38:01;18.50;99.90
17621;DHT22;8929;51.008;6.804;2022-10-16T09:40:28;18.50;99.90
17621;DHT22;8929;51.008;6.804;2022-10-16T09:42:57;18.50;99.90
17621;DHT22;8929;51.008;6.804;2022-10-16T09:45:23;18.50;99.90
17621;DHT22;8929;51.008;6.804;2022-10-16T09:47:48;18.70;99.90
17621;DHT22;8929;51.008;6.804;2022-10-16T09:52:46;18.80;99.90
17621;DHT22;8929;51.008;6.804;2022-10-16T09:55:12;18.90;99.90
17621;DHT22;8929;51.008;6.804;2022-10-16T09:57:48;19.00;99.90
17621;DHT22;8929;51.008;6.804;2022-10-16T10:00:15;19.10;99.90
17621;DHT22;8929;51.008;6.804;2022-10-16T10:02:41;19.30;99.90
17621;DHT22;8929;51.008;6.804;2022-10-16T10:05:17;19.40;99.90
17621;DHT22;8929;51.008;6.804;2022-10-16T10:07:43;19.30;99.90
17621;DHT22;8929;51.008;6.804;2022-10-16T10:13:16;19.50;99.90
17621;DHT22;8929;51.008;6.804;2022-10-16T10:15:42;19.80;99.90
17621;DHT22;8929;51.008;6.804;2022-10-16T10:18:18;20.30;99.90
17621;DHT22;8929;51.008;6.804;2022-10-16T10:20:44;21.40;99.90
17621;DHT22;8929;51.008;6.804;2022-10-16T10:23:28;22.50;99.90
17621;DHT22;8929;51.008;6.804;2022-10-16T10:26:09;22.60;99.90
17621;DHT22;8929;51.008;6.804;2022-10-16T10:28:42;23.00;99.90
17621;DHT22;8929;51.008;6.804;2022-10-16T10:31:26;23.00;99.90
17621;DHT22;8929;51.008;6.804;2022-10-16T10:33:56;22.90;99.90
17621;DHT22;8929;51.008;6.804;2022-10-16T10:36:37;22.80;99.90
17621;DHT22;8929;51.008;6.804;2022-10-16T10:39:14;22.80;99.90
17621;DHT22;8929;51.008;6.804;2022-10-16T10:47:06;23.40;99.90
17621;DHT22;8929;51.008;6.804;2022-10-16T10:54:52;22.80;99.90
17621;DHT22;8929;51.008;6.804;2022-10-16T10:57:33;23.70;99.90
17621;DHT22;8929;51.008;6.804;2022-10-16T11:05:06;23.60;99.90
17621;DHT22;8929;51.008;6.804;2022-10-16T11:07:45;24.10;99.90
17621;DHT22;8929;51.008;6.804;2022-10-16T11:10:13;24.00;99.90
17621;DHT22;8929;51.008;6.804;2022-10-16T11:12:42;24.00;99.90
17621;DHT22;8929;51.008;6.804;2022-10-16T11:15:14;24.20;99.90
17621;DHT22;8929;51.008;6.804;2022-10-16T11:17:41;24.60;99.90
17621;DHT22;8929;51.008;6.804;2022-10-16T11:20:16;24.80;99.90
17621;DHT22;8929;51.008;6.804;2022-10-16T11:22:47;24.30;99.90
17621;DHT22;8929;51.008;6.804;2022-10-16T11:25:18;23.80;99.90
17621;DHT22;8929;51.008;6.804;2022-10-16T11:27:54;24.30;99.90
17621;DHT22;8929;51.008;6.804;2022-10-16T11:30:23;24.10;99.90
17621;DHT22;8929;51.008;6.804;2022-10-16T11:35:19;25.20;99.90
17621;DHT22;8929;51.008;6.804;2022-10-16T11:37:47;26.00;99.90
17621;DHT22;8929;51.008;6.804;2022-10-16T11:42:41;25.20;99.90
17621;DHT22;8929;51.008;6.804;2022-10-16T11:45:23;24.70;99.90
17621;DHT22;8929;51.008;6.804;2022-10-16T11:47:54;24.40;99.90
17621;DHT22;8929;51.008;6.804;2022-10-16T11:55:48;24.00;99.90
17621;DHT22;8929;51.008;6.804;2022-10-16T11:58:22;24.20;99.90
17621;DHT22;8929;51.008;6.804;2022-10-16T12:01:10;24.60;99.90
17621;DHT22;8929;51.008;6.804;2022-10-16T12:08:50;24.30;99.90
17621;DHT22;8929;51.008;6.804;2022-10-16T12:16:38;24.50;99.90
17621;DHT22;8929;51.008;6.804;2022-10-16T12:19:10;24.70;99.90
17621;DHT22;8929;51.008;6.804;2022-10-16T12:21:36;24.90;99.90
17621;DHT22;8929;51.008;6.804;2022-10-16T12:24:02;24.80;99.90
17621;DHT22;8929;51.008;6.804;2022-10-16T12:26:31;25.00;99.90
17621;DHT22;8929;51.008;6.804;2022-10-16T12:29:08;25.20;99.90
17621;DHT22;8929;51.008;6.804;2022-10-16T12:31:39;25.60;99.90
17621;DHT22;8929;51.008;6.804;2022-10-16T12:34:14;25.70;99.90
17621;DHT22;8929;51.008;6.804;2022-10-16T12:36:45;25.60;99.90
17621;DHT22;8929;51.008;6.804;2022-10-16T12:39:16;25.50;99.90
17621;DHT22;8929;51.008;6.804;2022-10-16T12:41:45;25.40;99.90
17621;DHT22;8929;51.008;6.804;2022-10-16T12:44:21;25.30;99.90
17621;DHT22;8929;51.008;6.804;2022-10-16T12:46:48;25.30;99.90
17621;DHT22;8929;51.008;6.804;2022-10-16T12:49:21;25.20;99.90
17621;DHT22;8929;51.008;6.804;2022-10-16T12:51:47;25.40;99.90
17621;DHT22;8929;51.008;6.804;2022-10-16T13:02:03;25.40;99.90
17621;DHT22;8929;51.008;6.804;2022-10-16T13:07:19;24.80;99.90
17621;DHT22;8929;51.008;6.804;2022-10-16T13:12:48;25.10;99.90
17621;DHT22;8929;51.008;6.804;2022-10-16T13:20:31;24.40;99.90
17621;DHT22;8929;51.008;6.804;2022-10-16T13:28:00;24.50;99.90
17621;DHT22;8929;51.008;6.804;2022-10-16T13:30:27;24.40;99.90
17621;DHT22;8929;51.008;6.804;2022-10-16T13:32:59;24.40;99.90
17621;DHT22;8929;51.008;6.804;2022-10-16T13:35:26;24.40;99.90
17621;DHT22;8929;51.008;6.804;2022-10-16T13:38:03;24.20;99.90
17621;DHT22;8929;51.008;6.804;2022-10-16T13:40:28;24.00;99.90
17621;DHT22;8929;51.008;6.804;2022-10-16T13:42:54;23.80;99.90
17621;DHT22;8929;51.008;6.804;2022-10-16T13:45:21;23.70;99.90
17621;DHT22;8929;51.008;6.804;2022-10-16T13:47:46;23.60;99.90
17621;DHT22;8929;51.008;6.804;2022-10-16T13:50:13;23.60;99.90
17621;DHT22;8929;51.008;6.804;2022-10-16T13:52:39;23.70;99.90
17621;DHT22;8929;51.008;6.804;2022-10-16T13:55:10;23.80;99.90
17621;DHT22;8929;51.008;6.804;2022-10-16T13:57:36;23.90;99.90
17621;DHT22;8929;51.008;6.804;2022-10-16T14:00:01;24.10;99.90
17621;DHT22;8929;51.008;6.804;2022-10-16T14:02:29;24.40;99.90
17621;DHT22;8929;51.008;6.804;2022-10-16T14:04:55;24.70;99.90
17621;DHT22;8929;51.008;6.804;2022-10-16T14:07:29;24.60;99.90
17621;DHT22;8929;51.008;6.804;2022-10-16T14:09:57;24.50;99.90
17621;DHT22;8929;51.008;6.804;2022-10-16T14:12:25;24.30;99.90
17621;DHT22;8929;51.008;6.804;2022-10-16T14:14:51;24.10;99.90
17621;DHT22;8929;51.008;6.804;2022-10-16T14:17:27;24.00;99.90
17621;DHT22;8929;51.008;6.804;2022-10-16T14:19:54;24.00;99.90
17621;DHT22;8929;51.008;6.804;2022-10-16T14:22:26;23.90;99.90
17621;DHT22;8929;51.008;6.804;2022-10-16T14:24:53;23.80;99.90
17621;DHT22;8929;51.008;6.804;2022-10-16T14:27:27;23.70;99.90
17621;DHT22;8929;51.008;6.804;2022-10-16T14:30:12;23.60;99.90
17621;DHT22;8929;51.008;6.804;2022-10-16T14:32:40;23.50;99.90
17621;DHT22;8929;51.008;6.804;2022-10-16T14:35:25;23.40;99.90
17621;DHT22;8929;51.008;6.804;2022-10-16T14:37:52;23.30;99.90
17621;DHT22;8929;51.008;6.804;2022-10-16T14:40:18;23.20;99.90
17621;DHT22;8929;51.008;6.804;2022-10-16T14:42:43;23.10;99.90
17621;DHT22;8929;51.008;6.804;2022-10-16T14:45:10;23.00;99.90
17621;DHT22;8929;51.008;6.804;2022-10-16T14:47:37;22.90;99.90
17621;DHT22;8929;51.008;6.804;2022-10-16T14:50:11;22.90;99.90
17621;DHT22;8929;51.008;6.804;2022-10-16T14:52:37;22.90;99.90
17621;DHT22;8929;51.008;6.804;2022-10-16T14:55:02;22.80;99.90
17621;DHT22;8929;51.008;6.804;2022-10-16T14:57:35;22.70;99.90
17621;DHT22;8929;51.008;6.804;2022-10-16T15:00:02;22.70;99.90
17621;DHT22;8929;51.008;6.804;2022-10-16T15:02:29;22.70;99.90
17621;DHT22;8929;51.008;6.804;2022-10-16T15:04:55;22.60;99.90
17621;DHT22;8929;51.008;6.804;2022-10-16T15:07:21;22.50;99.90
17621;DHT22;8929;51.008;6.804;2022-10-16T15:09:46;22.40;99.90
17621;DHT22;8929;51.008;6.804;2022-10-16T15:12:12;22.30;99.90
17621;DHT22;8929;51.008;6.804;2022-10-16T15:14:37;22.30;99.90
17621;DHT22;8929;51.008;6.804;2022-10-16T15:17:03;22.40;99.90
17621;DHT22;8929;51.008;6.804;2022-10-16T15:19:29;22.40;99.90
17621;DHT22;8929;51.008;6.804;2022-10-16T15:21:55;22.40;99.90
17621;DHT22;8929;51.008;6.804;2022-10-16T15:24:20;22.40;99.90
17621;DHT22;8929;51.008;6.804;2022-10-16T15:26:46;22.30;99.90
17621;DHT22;8929;51.008;6.804;2022-10-16T15:29:12;22.20;99.90
17621;DHT22;8929;51.008;6.804;2022-10-16T15:31:38;22.20;99.90
17621;DHT22;8929;51.008;6.804;2022-10-16T15:34:03;22.00;99.90
17621;DHT22;8929;51.008;6.804;2022-10-16T15:36:32;21.90;99.90
17621;DHT22;8929;51.008;6.804;2022-10-16T15:39:19;21.90;99.90
17621;DHT22;8929;51.008;6.804;2022-10-16T15:41:48;21.80;99.90
17621;DHT22;8929;51.008;6.804;2022-10-16T15:44:18;21.70;99.90
17621;DHT22;8929;51.008;6.804;2022-10-16T15:46:43;21.60;99.90
17621;DHT22;8929;51.008;6.804;2022-10-16T15:49:09;21.50;99.90
17621;DHT22;8929;51.008;6.804;2022-10-16T15:51:37;21.50;99.90
17621;DHT22;8929;51.008;6.804;2022-10-16T15:54:03;21.40;99.90
17621;DHT22;8929;51.008;6.804;2022-10-16T15:56:28;21.30;99.90
17621;DHT22;8929;51.008;6.804;2022-10-16T15:58:54;21.20;99.90
17621;DHT22;8929;51.008;6.804;2022-10-16T16:01:20;21.20;99.90
17621;DHT22;8929;51.008;6.804;2022-10-16T16:03:46;21.10;99.90
17621;DHT22;8929;51.008;6.804;2022-10-16T16:06:12;21.00;99.90
17621;DHT22;8929;51.008;6.804;2022-10-16T16:08:38;20.90;99.90
17621;DHT22;8929;51.008;6.804;2022-10-16T16:11:11;20.90;99.90
17621;DHT22;8929;51.008;6.804;2022-10-16T16:13:37;20.80;99.90
17621;DHT22;8929;51.008;6.804;2022-10-16T16:16:06;20.80;99.90
17621;DHT22;8929;51.008;6.804;2022-10-16T16:18:33;20.80;99.90
17621;DHT22;8929;51.008;6.804;2022-10-16T16:20:58;20.70;99.90
17621;DHT22;8929;51.008;6.804;2022-10-16T16:23:24;20.70;99.90
17621;DHT22;8929;51.008;6.804;2022-10-16T16:28:57;20.50;99.90
17621;DHT22;8929;51.008;6.804;2022-10-16T16:31:23;20.40;99.90
17621;DHT22;8929;51.008;6.804;2022-10-16T16:33:49;20.40;99.90
17621;DHT22;8929;51.008;6.804;2022-10-16T16:36:16;20.30;99.90
17621;DHT22;8929;51.008;6.804;2022-10-16T16:38:43;20.20;99.90
17621;DHT22;8929;51.008;6.804;2022-10-16T16:41:13;20.20;99.90
17621;DHT22;8929;51.008;6.804;2022-10-16T16:43:39;20.20;99.90
17621;DHT22;8929;51.008;6.804;2022-10-16T16:46:04;20.10;99.90
17621;DHT22;8929;51.008;6.804;2022-10-16T16:48:30;20.00;99.90
17621;DHT22;8929;51.008;6.804;2022-10-16T16:50:56;20.00;99.90
17621;DHT22;8929;51.008;6.804;2022-10-16T16:53:22;19.90;99.90
17621;DHT22;8929;51.008;6.804;2022-10-16T16:55:47;19.90;99.90
17621;DHT22;8929;51.008;6.804;2022-10-16T16:58:13;20.00;99.90
17621;DHT22;8929;51.008;6.804;2022-10-16T17:00:44;19.90;99.90
17621;DHT22;8929;51.008;6.804;2022-10-16T17:03:10;19.90;99.90
17621;DHT22;8929;51.008;6.804;2022-10-16T17:05:36;19.90;99.90
17621;DHT22;8929;51.008;6.804;2022-10-16T17:08:01;19.90;99.90
17621;DHT22;8929;51.008;6.804;2022-10-16T17:10:27;19.90;99.90
17621;DHT22;8929;51.008;6.804;2022-10-16T17:12:52;19.80;99.90
17621;DHT22;8929;51.008;6.804;2022-10-16T17:15:18;19.80;99.90
17621;DHT22;8929;51.008;6.804;2022-10-16T17:17:43;19.80;99.90
17621;DHT22;8929;51.008;6.804;2022-10-16T17:20:09;19.80;99.90
17621;DHT22;8929;51.008;6.804;2022-10-16T17:22:35;19.80;99.90
17621;DHT22;8929;51.008;6.804;2022-10-16T17:25:01;19.80;99.90
17621;DHT22;8929;51.008;6.804;2022-10-16T17:27:28;19.80;99.90
17621;DHT22;8929;51.008;6.804;2022-10-16T17:30:14;19.80;99.90
17621;DHT22;8929;51.008;6.804;2022-10-16T17:32:39;19.80;99.90